createdAt,value
2022-10-07T00:02:23.074Z,7.97
2022-10-07T00:05:26.257Z,7.83
2022-10-07T00:08:30.051Z,7.88
2022-10-07T00:11:33.522Z,7.90
2022-10-07T00:14:37.948Z,7.85
2022-10-07T00:17:41.109Z,7.83
2022-10-07T00:20:44.297Z,7.76
2022-10-07T00:23:48.832Z,7.73
2022-10-07T00:26:51.951Z,7.78
2022-10-07T00:29:56.319Z,7.86
2022-10-07T00:32:59.380Z,7.70
2022-10-07T00:36:02.983Z,7.66
2022-10-07T00:39:08.510Z,7.62
2022-10-07T00:42:14.783Z,7.67
2022-10-07T00:45:21.296Z,7.59
2022-10-07T00:48:28.520Z,7.43
2022-10-07T00:51:34.289Z,7.46
2022-10-07T00:54:39.344Z,7.51
2022-10-07T00:57:43.772Z,7.52
2022-10-07T01:00:49.693Z,7.34
2022-10-07T01:03:53.548Z,7.49
2022-10-07T01:06:57.100Z,7.53
2022-10-07T01:10:01.374Z,7.51
2022-10-07T01:13:14.611Z,7.51
2022-10-07T01:16:26.285Z,7.49
2022-10-07T01:19:44.796Z,7.49
2022-10-07T01:23:01.357Z,7.41
2022-10-07T01:26:41.446Z,7.37
2022-10-07T01:29:55.927Z,7.33
2022-10-07T01:33:04.482Z,7.26
2022-10-07T01:36:10.607Z,7.27
2022-10-07T01:39:17.717Z,7.34
2022-10-07T01:42:22.602Z,7.20
2022-10-07T01:45:30.401Z,7.32
2022-10-07T01:48:33.293Z,7.26
2022-10-07T01:51:39.830Z,7.25
2022-10-07T01:55:03.430Z,7.26
2022-10-07T01:58:17.173Z,7.26
2022-10-07T02:01:27.289Z,7.18
2022-10-07T02:04:44.629Z,7.14
2022-10-07T02:08:08.342Z,7.22
2022-10-07T02:11:16.952Z,7.20
2022-10-07T02:14:32.043Z,6.97
2022-10-07T02:17:38.713Z,7.13
2022-10-07T02:20:45.593Z,7.02
2022-10-07T02:23:50.551Z,7.02
2022-10-07T02:26:55.726Z,7.04
2022-10-07T02:30:06.472Z,6.88
2022-10-07T02:33:11.316Z,6.85
2022-10-07T02:36:22.383Z,7.05
2022-10-07T02:39:25.539Z,6.83
2022-10-07T02:42:36.475Z,7.03
2022-10-07T02:45:46.402Z,7.03
2022-10-07T02:48:57.519Z,6.98
2022-10-07T02:52:05.347Z,6.99
2022-10-07T03:00:01.056Z,7.02
2022-10-07T03:03:10.721Z,6.80
2022-10-07T03:06:30.505Z,6.80
2022-10-07T03:09:35.950Z,6.89
2022-10-07T03:12:38.958Z,6.80
2022-10-07T03:15:43.212Z,6.73
2022-10-07T03:18:53.254Z,6.68
2022-10-07T03:22:02.834Z,6.70
2022-10-07T03:25:09.457Z,6.69
2022-10-07T03:28:12.491Z,6.54
2022-10-07T03:31:16.282Z,6.54
2022-10-07T03:34:26.886Z,6.55
2022-10-07T03:37:31.485Z,6.56
2022-10-07T03:40:36.230Z,6.50
2022-10-07T03:43:39.508Z,6.39
2022-10-07T03:46:43.596Z,6.53
2022-10-07T03:49:48.653Z,6.37
2022-10-07T03:52:51.642Z,6.38
2022-10-07T03:55:54.750Z,6.46
2022-10-07T03:58:58.179Z,6.39
2022-10-07T04:02:01.649Z,6.34
2022-10-07T04:05:06.636Z,6.38
2022-10-07T04:08:12.485Z,6.38
2022-10-07T04:11:15.442Z,6.52
2022-10-07T04:14:20.174Z,6.45
2022-10-07T04:17:24.580Z,6.55
2022-10-07T04:20:29.011Z,6.58
2022-10-07T04:23:31.922Z,6.63
2022-10-07T04:26:34.771Z,6.58
2022-10-07T04:29:39.346Z,6.63
2022-10-07T04:32:43.136Z,6.57
2022-10-07T04:35:48.728Z,6.47
2022-10-07T04:38:52.059Z,6.54
2022-10-07T04:42:00.606Z,6.52
2022-10-07T04:45:09.929Z,6.53
2022-10-07T04:48:13.046Z,6.46
2022-10-07T04:51:17.852Z,6.49
2022-10-07T04:54:24.270Z,6.42
2022-10-07T04:57:30.567Z,6.46
2022-10-07T05:00:33.882Z,6.47
2022-10-07T05:03:38.769Z,6.44
2022-10-07T05:06:43.771Z,6.43
2022-10-07T05:09:47.500Z,6.41
2022-10-07T05:12:55.922Z,6.43
2022-10-07T05:16:01.362Z,6.25
2022-10-07T05:19:05.019Z,6.33
2022-10-07T05:22:09.820Z,6.43
2022-10-07T05:25:12.939Z,6.33
2022-10-07T05:28:16.838Z,6.40
2022-10-07T05:31:20.377Z,6.45
2022-10-07T05:34:28.008Z,6.40
2022-10-07T05:37:33.763Z,6.43
2022-10-07T05:40:36.816Z,6.36
2022-10-07T05:43:42.452Z,6.43
2022-10-07T05:46:49.289Z,6.41
2022-10-07T05:49:58.454Z,6.37
2022-10-07T05:53:03.108Z,6.30
2022-10-07T05:56:08.242Z,6.31
2022-10-07T05:59:11.939Z,6.26
2022-10-07T06:02:19.253Z,6.23
2022-10-07T06:05:25.190Z,6.03
2022-10-07T06:08:30.251Z,6.14
2022-10-07T06:11:53.280Z,6.19
2022-10-07T06:14:56.351Z,6.32
2022-10-07T06:17:59.507Z,6.49
2022-10-07T06:21:03.803Z,6.53
2022-10-07T06:24:09.091Z,6.57
2022-10-07T06:27:12.089Z,6.57
2022-10-07T06:30:17.180Z,6.61
2022-10-07T06:33:20.837Z,6.63
2022-10-07T06:36:24.082Z,6.68
2022-10-07T06:39:31.987Z,6.72
2022-10-07T06:42:35.118Z,6.72
2022-10-07T06:46:06.225Z,6.81
2022-10-07T06:49:10.319Z,6.95
2022-10-07T06:52:14.523Z,7.04
2022-10-07T06:55:19.641Z,7.15
2022-10-07T06:58:23.414Z,7.20
2022-10-07T07:01:27.351Z,7.23
2022-10-07T07:04:31.679Z,7.37
2022-10-07T07:07:34.787Z,7.45
2022-10-07T07:10:39.852Z,7.53
2022-10-07T07:13:45.354Z,7.63
2022-10-07T07:16:49.381Z,7.71
2022-10-07T07:19:53.571Z,7.83
2022-10-07T07:22:56.549Z,7.89
2022-10-07T07:26:02.061Z,8.04
2022-10-07T07:29:07.247Z,8.17
2022-10-07T07:32:16.194Z,8.30
2022-10-07T07:35:19.770Z,8.42
2022-10-07T07:38:24.853Z,8.56
2022-10-07T07:41:32.644Z,8.65
2022-10-07T07:44:36.932Z,8.78
2022-10-07T07:47:43.772Z,8.88
2022-10-07T07:50:46.875Z,9.04
2022-10-07T07:53:50.714Z,9.17
2022-10-07T07:56:55.119Z,9.35
2022-10-07T07:59:58.823Z,9.45
2022-10-07T08:03:02.498Z,9.61
2022-10-07T08:06:06.879Z,9.70
2022-10-07T08:09:10.420Z,9.83
2022-10-07T08:12:15.915Z,10.04
2022-10-07T08:15:18.826Z,10.24
2022-10-07T08:18:22.104Z,10.58
2022-10-07T08:21:26.939Z,10.65
2022-10-07T08:24:33.349Z,10.73
2022-10-07T08:27:37.645Z,10.86
2022-10-07T08:30:41.291Z,11.08
2022-10-07T08:33:46.122Z,11.15
2022-10-07T08:36:50.571Z,11.41
2022-10-07T08:39:53.461Z,11.63
2022-10-07T08:42:59.415Z,11.63
2022-10-07T08:46:04.257Z,11.68
2022-10-07T08:49:14.312Z,11.85
2022-10-07T08:52:40.615Z,12.04
2022-10-07T08:55:47.427Z,12.28
2022-10-07T08:59:02.313Z,12.33
2022-10-07T09:02:21.046Z,12.44
2022-10-07T09:05:27.960Z,12.52
2022-10-07T09:08:36.101Z,12.58
2022-10-07T09:11:43.106Z,12.57
2022-10-07T09:14:49.334Z,12.68
2022-10-07T09:17:57.402Z,12.90
2022-10-07T09:21:00.949Z,13.24
2022-10-07T09:24:18.737Z,13.24
2022-10-07T09:27:23.094Z,13.36
2022-10-07T09:30:29.604Z,13.40
2022-10-07T09:33:42.719Z,13.62
2022-10-07T09:37:10.848Z,13.85
2022-10-07T09:40:22.273Z,14.09
2022-10-07T09:43:25.567Z,14.18
2022-10-07T09:46:37.428Z,14.39
2022-10-07T09:49:42.895Z,14.50
2022-10-07T09:52:56.493Z,14.54
2022-10-07T09:55:59.314Z,14.94
2022-10-07T09:59:18.177Z,14.98
2022-10-07T10:02:26.300Z,15.03
2022-10-07T10:05:31.822Z,15.04
2022-10-07T10:08:37.714Z,15.12
2022-10-07T10:11:40.662Z,15.20
2022-10-07T10:14:49.754Z,15.12
2022-10-07T10:17:58.510Z,15.15
2022-10-07T10:21:21.085Z,15.22
2022-10-07T10:24:39.338Z,15.27
2022-10-07T10:27:56.464Z,15.23
2022-10-07T10:31:07.937Z,15.36
2022-10-07T10:34:27.675Z,15.46
2022-10-07T10:37:48.151Z,15.61
2022-10-07T10:40:59.893Z,15.74
2022-10-07T10:44:23.237Z,15.60
2022-10-07T10:47:35.526Z,15.81
2022-10-07T10:50:53.788Z,15.93
2022-10-07T10:54:11.786Z,15.94
2022-10-07T10:57:23.135Z,16.09
2022-10-07T11:00:26.460Z,16.10
2022-10-07T11:03:45.341Z,16.01
2022-10-07T11:06:54.511Z,16.07
2022-10-07T11:10:02.079Z,16.21
2022-10-07T11:13:23.262Z,16.08
2022-10-07T11:16:30.982Z,16.09
2022-10-07T11:19:41.685Z,16.03
2022-10-07T11:22:53.558Z,16.13
2022-10-07T11:26:00.279Z,16.31
2022-10-07T11:29:13.891Z,16.31
2022-10-07T11:32:24.020Z,16.33
2022-10-07T11:35:31.283Z,16.21
2022-10-07T11:38:39.988Z,16.40
2022-10-07T11:41:51.716Z,16.38
2022-10-07T11:45:00.372Z,16.42
2022-10-07T11:48:08.572Z,16.55
2022-10-07T11:51:22.640Z,16.58
2022-10-07T11:54:30.139Z,16.57
2022-10-07T11:57:36.611Z,16.63
2022-10-07T12:00:40.557Z,16.49
2022-10-07T12:03:48.627Z,16.41
2022-10-07T12:07:28.707Z,16.36
2022-10-07T12:10:34.239Z,16.51
2022-10-07T12:13:40.051Z,16.81
2022-10-07T12:16:54.258Z,16.78
2022-10-07T12:20:45.009Z,16.67
2022-10-07T12:23:48.829Z,16.67
2022-10-07T12:27:13.492Z,16.61
2022-10-07T12:30:42.284Z,16.73
2022-10-07T12:33:57.475Z,16.70
2022-10-07T12:37:33.377Z,16.71
2022-10-07T12:40:36.855Z,16.86
2022-10-07T12:43:51.691Z,16.96
2022-10-07T12:47:01.010Z,16.96
2022-10-07T12:50:08.482Z,16.92
2022-10-07T12:53:12.874Z,16.94
2022-10-07T12:56:22.887Z,16.94
2022-10-07T12:59:48.206Z,16.94
2022-10-07T13:03:36.197Z,16.95
2022-10-07T13:07:34.378Z,16.90
2022-10-07T13:10:57.561Z,16.84
2022-10-07T13:14:06.468Z,16.95
2022-10-07T13:17:23.952Z,16.97
2022-10-07T13:20:46.884Z,17.01
2022-10-07T13:23:52.447Z,16.92
2022-10-07T13:26:56.483Z,16.98
2022-10-07T13:30:01.149Z,16.97
2022-10-07T13:33:21.148Z,17.02
2022-10-07T13:36:25.679Z,17.05
2022-10-07T13:39:30.405Z,16.99
2022-10-07T13:42:33.301Z,17.06
2022-10-07T13:45:45.143Z,17.06
2022-10-07T13:48:49.611Z,17.07
2022-10-07T13:51:58.159Z,17.11
2022-10-07T13:55:20.172Z,17.15
2022-10-07T13:58:23.746Z,17.08
2022-10-07T14:01:31.612Z,17.16
2022-10-07T14:04:37.070Z,17.14
2022-10-07T14:07:43.028Z,17.20
2022-10-07T14:10:52.969Z,17.24
2022-10-07T14:13:57.175Z,17.21
2022-10-07T14:17:00.770Z,17.28
2022-10-07T14:20:07.866Z,17.33
2022-10-07T14:23:21.623Z,17.28
2022-10-07T14:26:43.553Z,17.26
2022-10-07T14:29:47.107Z,17.27
2022-10-07T14:33:17.303Z,17.30
2022-10-07T14:36:23.044Z,17.23
2022-10-07T14:39:34.273Z,17.21
2022-10-07T14:42:39.375Z,17.22
2022-10-07T14:45:42.797Z,17.20
2022-10-07T14:48:45.957Z,17.21
2022-10-07T14:51:52.277Z,17.27
2022-10-07T14:54:56.437Z,17.30
2022-10-07T14:57:59.311Z,17.31
2022-10-07T15:01:02.129Z,17.27
2022-10-07T15:04:06.873Z,17.18
2022-10-07T15:07:13.240Z,17.18
2022-10-07T15:10:19.360Z,17.23
2022-10-07T15:13:22.374Z,17.16
2022-10-07T15:16:28.843Z,17.09
2022-10-07T15:19:31.779Z,16.99
2022-10-07T15:22:36.187Z,16.90
2022-10-07T15:25:42.499Z,16.83
2022-10-07T15:28:45.480Z,16.77
2022-10-07T15:31:48.479Z,16.73
2022-10-07T15:34:55.219Z,16.63
2022-10-07T15:37:59.475Z,16.62
2022-10-07T15:41:03.065Z,16.63
2022-10-07T15:44:07.947Z,16.58
2022-10-07T15:47:12.812Z,16.53
2022-10-07T15:50:16.304Z,16.45
2022-10-07T15:53:22.478Z,16.48
2022-10-07T15:56:26.382Z,16.46
2022-10-07T15:59:29.248Z,16.37
2022-10-07T16:02:34.395Z,16.32
2022-10-07T16:05:37.933Z,16.23
2022-10-07T16:08:42.365Z,16.30
2022-10-07T16:11:45.760Z,16.10
2022-10-07T16:14:49.056Z,16.01
2022-10-07T16:17:53.243Z,15.83
2022-10-07T16:20:56.107Z,15.68
2022-10-07T16:24:03.210Z,15.73
2022-10-07T16:27:06.734Z,15.75
2022-10-07T16:30:28.503Z,15.78
2022-10-07T16:33:31.405Z,15.78
2022-10-07T16:36:35.575Z,15.68
2022-10-07T16:39:40.070Z,15.66
2022-10-07T16:42:42.957Z,15.61
2022-10-07T16:45:45.935Z,15.51
2022-10-07T16:48:53.608Z,15.41
2022-10-07T16:51:57.086Z,15.03
2022-10-07T16:55:01.669Z,15.04
2022-10-07T16:58:04.609Z,15.02
2022-10-07T17:01:10.305Z,15.03
2022-10-07T17:04:13.708Z,14.94
2022-10-07T17:07:16.843Z,14.56
2022-10-07T17:10:21.234Z,14.18
2022-10-07T17:13:24.492Z,14.12
2022-10-07T17:16:32.306Z,14.02
2022-10-07T17:19:36.499Z,14.04
2022-10-07T17:22:40.406Z,13.80
2022-10-07T17:25:46.282Z,13.81
2022-10-07T17:28:49.985Z,13.68
2022-10-07T17:31:53.166Z,13.51
2022-10-07T17:34:56.313Z,13.60
2022-10-07T17:37:59.498Z,13.52
2022-10-07T17:41:11.643Z,13.40
2022-10-07T17:44:16.001Z,13.58
2022-10-07T17:47:18.985Z,13.53
2022-10-07T17:50:21.815Z,13.16
2022-10-07T17:53:25.549Z,13.41
2022-10-07T17:56:31.830Z,13.42
2022-10-07T17:59:34.799Z,13.05
2022-10-07T18:02:40.034Z,13.21
2022-10-07T18:05:51.294Z,13.18
2022-10-07T18:08:54.340Z,13.22
2022-10-07T18:12:16.521Z,13.14
2022-10-07T18:15:23.317Z,13.10
2022-10-07T18:18:26.241Z,12.93
2022-10-07T18:21:31.837Z,12.78
2022-10-07T18:24:34.923Z,12.29
2022-10-07T18:27:39.394Z,12.39
2022-10-07T18:30:42.401Z,12.24
2022-10-07T18:33:46.419Z,12.30
2022-10-07T18:36:53.818Z,12.28
2022-10-07T18:40:00.699Z,12.28
2022-10-07T18:43:05.093Z,12.20
2022-10-07T18:46:10.397Z,11.89
2022-10-07T18:49:14.266Z,11.51
2022-10-07T18:52:18.310Z,11.71
2022-10-07T18:55:21.173Z,11.64
2022-10-07T18:58:25.515Z,11.78
2022-10-07T19:01:30.326Z,11.67
2022-10-07T19:04:33.340Z,11.59
2022-10-07T19:07:36.861Z,11.67
2022-10-07T19:10:41.773Z,11.56
2022-10-07T19:13:50.547Z,11.48
2022-10-07T19:16:54.072Z,11.32
2022-10-07T19:20:00.730Z,11.27
2022-10-07T19:23:03.831Z,11.42
2022-10-07T19:26:06.944Z,11.55
2022-10-07T19:29:12.465Z,11.50
2022-10-07T19:32:15.382Z,11.63
2022-10-07T19:35:18.416Z,11.63
2022-10-07T19:38:22.922Z,11.77
2022-10-07T19:41:28.559Z,11.67
2022-10-07T19:44:33.508Z,11.63
2022-10-07T19:47:36.473Z,11.53
2022-10-07T19:50:39.810Z,11.29
2022-10-07T19:53:46.996Z,11.17
2022-10-07T19:56:50.541Z,11.25
2022-10-07T19:59:54.876Z,11.24
2022-10-07T20:02:58.811Z,11.32
2022-10-07T20:06:05.470Z,11.22
2022-10-07T20:09:10.471Z,11.23
2022-10-07T20:12:14.039Z,11.19
2022-10-07T20:15:18.830Z,11.29
2022-10-07T20:18:21.908Z,11.25
2022-10-07T20:21:25.228Z,11.12
2022-10-07T20:24:28.132Z,11.16
2022-10-07T20:27:31.148Z,11.39
2022-10-07T20:30:36.878Z,11.39
2022-10-07T20:33:40.647Z,11.39
2022-10-07T20:36:43.611Z,11.44
2022-10-07T20:40:03.942Z,11.52
2022-10-07T20:43:06.933Z,11.50
2022-10-07T20:46:11.283Z,11.52
2022-10-07T20:49:22.579Z,11.50
2022-10-07T20:52:27.804Z,11.51
2022-10-07T20:55:34.120Z,11.46
2022-10-07T20:58:39.146Z,11.34
2022-10-07T21:01:44.396Z,11.25
2022-10-07T21:04:48.180Z,11.31
2022-10-07T21:07:54.479Z,11.25
2022-10-07T21:11:01.384Z,11.20
2022-10-07T21:14:04.627Z,11.22
2022-10-07T21:17:10.175Z,11.20
2022-10-07T21:20:13.106Z,11.22
2022-10-07T21:23:15.928Z,11.21
2022-10-07T21:26:19.417Z,11.13
2022-10-07T21:29:22.414Z,11.11
2022-10-07T21:32:28.162Z,11.19
2022-10-07T21:35:32.170Z,11.18
2022-10-07T21:38:35.575Z,11.18
2022-10-07T21:41:38.826Z,11.20
2022-10-07T21:44:43.126Z,11.23
2022-10-07T21:47:47.359Z,11.20
2022-10-07T21:50:54.944Z,11.18
2022-10-07T21:53:59.060Z,11.18
2022-10-07T21:57:02.718Z,11.09
2022-10-07T22:00:06.475Z,11.12
2022-10-07T22:03:16.140Z,11.03
2022-10-07T22:06:19.082Z,11.06
2022-10-07T22:09:21.462Z,10.94
2022-10-07T22:12:24.570Z,10.98
2022-10-07T22:15:28.453Z,10.99
2022-10-07T22:18:34.155Z,11.01
2022-10-07T22:21:40.188Z,11.03
2022-10-07T22:24:43.238Z,11.03
2022-10-07T22:27:47.541Z,11.02
2022-10-07T22:30:50.439Z,11.06
2022-10-07T22:33:55.926Z,11.10
2022-10-07T22:36:59.000Z,11.08
2022-10-07T22:40:01.902Z,11.08
2022-10-07T22:43:04.923Z,11.10
2022-10-07T22:46:08.178Z,11.07
2022-10-07T22:49:12.552Z,11.14
2022-10-07T22:52:15.446Z,11.13
2022-10-07T22:55:21.394Z,11.18
2022-10-07T22:58:24.344Z,11.21
2022-10-07T23:01:29.454Z,11.18
2022-10-07T23:04:33.806Z,11.22
2022-10-07T23:07:36.727Z,11.16
2022-10-07T23:10:40.687Z,11.21
2022-10-07T23:13:43.866Z,11.13
2022-10-07T23:16:46.729Z,11.14
2022-10-07T23:19:51.028Z,11.14
2022-10-07T23:22:53.900Z,11.17
2022-10-07T23:25:57.238Z,11.14
2022-10-07T23:29:01.589Z,11.15
2022-10-07T23:32:04.452Z,11.13
2022-10-07T23:35:09.662Z,11.16
2022-10-07T23:38:12.588Z,11.22
2022-10-07T23:41:18.141Z,11.28
2022-10-07T23:44:23.001Z,11.31
2022-10-07T23:47:25.872Z,11.25
2022-10-07T23:50:30.135Z,11.28
2022-10-07T23:53:34.445Z,11.32
2022-10-07T23:56:37.342Z,11.29
2022-10-07T23:59:40.216Z,11.31
